sensor_id;sensor_type;location;lat;lon;timestamp;pressure;altitude;pressure_sealevel;temperature;humidity
25510;BME280;13413;52.336;21.200;2022-09-09T00:00:24;100304.33;;;16.24;58.25
25510;BME280;13413;52.336;21.200;2022-09-09T00:03:49;100297.02;;;16.28;58.24
25510;BME280;13413;52.336;21.200;2022-09-09T00:07:19;100294.43;;;16.28;58.26
25510;BME280;13413;52.336;21.200;2022-09-09T00:10:42;100295.15;;;16.31;58.58
25510;BME280;13413;52.336;21.200;2022-09-09T00:14:07;100294.55;;;16.12;59.02
25510;BME280;13413;52.336;21.200;2022-09-09T00:17:34;100296.02;;;16.02;59.97
25510;BME280;13413;52.336;21.200;2022-09-09T00:21:00;100289.14;;;16.08;59.65
25510;BME280;13413;52.336;21.200;2022-09-09T00:24:26;100286.29;;;16.09;59.69
25510;BME280;13413;52.336;21.200;2022-09-09T00:27:49;100281.91;;;16.12;59.73
25510;BME280;13413;52.336;21.200;2022-09-09T00:31:13;100278.16;;;16.10;59.74
25510;BME280;13413;52.336;21.200;2022-09-09T00:34:35;100278.27;;;16.00;60.33
25510;BME280;13413;52.336;21.200;2022-09-09T00:37:57;100274.15;;;15.99;60.76
25510;BME280;13413;52.336;21.200;2022-09-09T00:41:29;100270.52;;;15.90;60.78
25510;BME280;13413;52.336;21.200;2022-09-09T00:45:01;100273.60;;;15.83;61.55
25510;BME280;13413;52.336;21.200;2022-09-09T00:48:41;100267.35;;;15.81;61.12
25510;BME280;13413;52.336;21.200;2022-09-09T00:52:15;100264.98;;;15.87;61.35
25510;BME280;13413;52.336;21.200;2022-09-09T00:55:44;100263.84;;;15.85;61.58
25510;BME280;13413;52.336;21.200;2022-09-09T00:59:12;100257.80;;;15.81;61.43
25510;BME280;13413;52.336;21.200;2022-09-09T01:02:42;100255.27;;;15.89;61.76
25510;BME280;13413;52.336;21.200;2022-09-09T01:06:18;100258.14;;;15.90;61.58
25510;BME280;13413;52.336;21.200;2022-09-09T01:09:47;100255.04;;;15.84;61.91
25510;BME280;13413;52.336;21.200;2022-09-09T01:13:15;100253.54;;;15.87;62.02
25510;BME280;13413;52.336;21.200;2022-09-09T01:16:39;100250.40;;;15.81;62.15
25510;BME280;13413;52.336;21.200;2022-09-09T01:20:05;100252.21;;;15.80;62.46
25510;BME280;13413;52.336;21.200;2022-09-09T01:23:37;100252.92;;;15.77;62.52
25510;BME280;13413;52.336;21.200;2022-09-09T01:26:58;100250.23;;;15.70;62.71
25510;BME280;13413;52.336;21.200;2022-09-09T01:30:19;100257.35;;;15.66;62.93
25510;BME280;13413;52.336;21.200;2022-09-09T01:33:40;100258.19;;;15.68;62.79
25510;BME280;13413;52.336;21.200;2022-09-09T01:37:04;100258.59;;;15.77;62.67
25510;BME280;13413;52.336;21.200;2022-09-09T01:40:25;100257.48;;;15.87;62.61
25510;BME280;13413;52.336;21.200;2022-09-09T01:43:45;100257.86;;;15.94;62.59
25510;BME280;13413;52.336;21.200;2022-09-09T01:47:05;100255.58;;;15.99;62.63
25510;BME280;13413;52.336;21.200;2022-09-09T01:50:25;100254.64;;;15.92;62.70
25510;BME280;13413;52.336;21.200;2022-09-09T01:53:45;100244.13;;;15.86;62.95
25510;BME280;13413;52.336;21.200;2022-09-09T01:57:08;100239.29;;;15.89;63.11
25510;BME280;13413;52.336;21.200;2022-09-09T02:03:55;100237.59;;;15.91;63.02
25510;BME280;13413;52.336;21.200;2022-09-09T02:07:31;100243.08;;;15.92;63.08
25510;BME280;13413;52.336;21.200;2022-09-09T02:11:01;100241.45;;;15.92;63.20
25510;BME280;13413;52.336;21.200;2022-09-09T02:14:27;100241.91;;;15.91;63.50
25510;BME280;13413;52.336;21.200;2022-09-09T02:17:48;100239.89;;;15.91;63.46
25510;BME280;13413;52.336;21.200;2022-09-09T02:21:11;100238.05;;;15.97;63.40
25510;BME280;13413;52.336;21.200;2022-09-09T02:24:35;100240.54;;;16.02;63.45
25510;BME280;13413;52.336;21.200;2022-09-09T02:27:56;100240.06;;;15.99;63.49
25510;BME280;13413;52.336;21.200;2022-09-09T02:31:19;100237.19;;;15.92;63.52
25510;BME280;13413;52.336;21.200;2022-09-09T02:34:42;100234.17;;;15.90;63.70
25510;BME280;13413;52.336;21.200;2022-09-09T02:38:06;100234.05;;;15.92;63.76
25510;BME280;13413;52.336;21.200;2022-09-09T02:41:30;100236.46;;;15.96;63.69
25510;BME280;13413;52.336;21.200;2022-09-09T02:44:50;100236.30;;;15.95;63.92
25510;BME280;13413;52.336;21.200;2022-09-09T02:48:17;100236.61;;;15.97;63.80
25510;BME280;13413;52.336;21.200;2022-09-09T02:51:47;100237.37;;;15.96;63.96
25510;BME280;13413;52.336;21.200;2022-09-09T02:55:10;100240.63;;;15.95;64.01
25510;BME280;13413;52.336;21.200;2022-09-09T02:58:31;100243.81;;;15.91;64.12
25510;BME280;13413;52.336;21.200;2022-09-09T03:01:50;100244.97;;;15.79;64.35
25510;BME280;13413;52.336;21.200;2022-09-09T03:05:11;100247.48;;;15.81;64.41
25510;BME280;13413;52.336;21.200;2022-09-09T03:08:31;100243.52;;;15.85;64.34
25510;BME280;13413;52.336;21.200;2022-09-09T03:11:51;100241.44;;;15.91;64.34
25510;BME280;13413;52.336;21.200;2022-09-09T03:15:11;100244.00;;;15.93;64.37
25510;BME280;13413;52.336;21.200;2022-09-09T03:18:31;100245.44;;;15.88;64.59
25510;BME280;13413;52.336;21.200;2022-09-09T03:21:49;100239.64;;;15.93;64.49
25510;BME280;13413;52.336;21.200;2022-09-09T03:25:10;100241.33;;;16.01;64.35
25510;BME280;13413;52.336;21.200;2022-09-09T03:28:31;100242.05;;;16.05;64.16
25510;BME280;13413;52.336;21.200;2022-09-09T03:31:49;100239.98;;;16.01;64.48
25510;BME280;13413;52.336;21.200;2022-09-09T03:35:10;100241.52;;;15.98;64.51
25510;BME280;13413;52.336;21.200;2022-09-09T03:38:30;100232.20;;;16.01;64.60
25510;BME280;13413;52.336;21.200;2022-09-09T03:41:52;100228.55;;;16.06;64.51
25510;BME280;13413;52.336;21.200;2022-09-09T03:45:12;100233.82;;;15.98;64.60
25510;BME280;13413;52.336;21.200;2022-09-09T03:48:33;100227.63;;;16.03;64.64
25510;BME280;13413;52.336;21.200;2022-09-09T03:55:11;100217.92;;;16.08;64.65
25510;BME280;13413;52.336;21.200;2022-09-09T03:58:30;100218.79;;;16.08;64.68
25510;BME280;13413;52.336;21.200;2022-09-09T04:01:50;100224.77;;;15.98;64.83
25510;BME280;13413;52.336;21.200;2022-09-09T04:05:10;100224.34;;;15.99;64.88
25510;BME280;13413;52.336;21.200;2022-09-09T04:08:30;100226.55;;;16.11;64.70
25510;BME280;13413;52.336;21.200;2022-09-09T04:11:50;100229.16;;;16.21;64.62
25510;BME280;13413;52.336;21.200;2022-09-09T04:15:11;100232.18;;;16.11;64.70
25510;BME280;13413;52.336;21.200;2022-09-09T04:18:31;100235.03;;;16.11;64.74
25510;BME280;13413;52.336;21.200;2022-09-09T04:21:50;100236.83;;;16.12;64.72
25510;BME280;13413;52.336;21.200;2022-09-09T04:25:09;100236.07;;;16.10;64.84
25510;BME280;13413;52.336;21.200;2022-09-09T04:28:30;100236.59;;;16.11;64.75
25510;BME280;13413;52.336;21.200;2022-09-09T04:31:49;100236.15;;;16.15;64.75
25510;BME280;13413;52.336;21.200;2022-09-09T04:35:09;100238.39;;;16.12;64.73
25510;BME280;13413;52.336;21.200;2022-09-09T04:38:29;100236.30;;;16.18;64.80
25510;BME280;13413;52.336;21.200;2022-09-09T04:41:48;100237.74;;;16.18;64.69
25510;BME280;13413;52.336;21.200;2022-09-09T04:45:08;100235.61;;;16.23;64.82
25510;BME280;13413;52.336;21.200;2022-09-09T04:48:28;100236.34;;;16.19;64.71
25510;BME280;13413;52.336;21.200;2022-09-09T04:51:50;100240.06;;;16.23;64.95
25510;BME280;13413;52.336;21.200;2022-09-09T04:55:10;100240.09;;;16.18;64.90
25510;BME280;13413;52.336;21.200;2022-09-09T04:58:31;100237.11;;;16.20;64.96
25510;BME280;13413;52.336;21.200;2022-09-09T05:01:50;100245.14;;;16.28;64.99
25510;BME280;13413;52.336;21.200;2022-09-09T05:05:10;100243.83;;;16.26;64.95
25510;BME280;13413;52.336;21.200;2022-09-09T05:08:28;100250.42;;;16.26;64.86
25510;BME280;13413;52.336;21.200;2022-09-09T05:11:47;100252.16;;;16.32;64.96
25510;BME280;13413;52.336;21.200;2022-09-09T05:15:08;100252.86;;;16.37;64.85
25510;BME280;13413;52.336;21.200;2022-09-09T05:18:29;100247.94;;;16.42;64.70
25510;BME280;13413;52.336;21.200;2022-09-09T05:21:48;100248.80;;;16.42;64.73
25510;BME280;13413;52.336;21.200;2022-09-09T05:25:09;100246.39;;;16.31;64.92
25510;BME280;13413;52.336;21.200;2022-09-09T05:28:29;100250.58;;;16.34;64.83
25510;BME280;13413;52.336;21.200;2022-09-09T05:31:48;100253.05;;;16.34;64.97
25510;BME280;13413;52.336;21.200;2022-09-09T05:35:08;100251.84;;;16.31;65.18
25510;BME280;13413;52.336;21.200;2022-09-09T05:38:29;100252.56;;;16.33;65.10
25510;BME280;13413;52.336;21.200;2022-09-09T05:41:48;100260.96;;;16.33;65.25
25510;BME280;13413;52.336;21.200;2022-09-09T05:45:09;100262.35;;;16.27;65.42
25510;BME280;13413;52.336;21.200;2022-09-09T05:52:08;100265.73;;;16.27;65.59
25510;BME280;13413;52.336;21.200;2022-09-09T05:55:28;100264.71;;;16.33;65.37
25510;BME280;13413;52.336;21.200;2022-09-09T05:58:48;100263.64;;;16.33;65.55
25510;BME280;13413;52.336;21.200;2022-09-09T06:02:09;100263.77;;;16.26;65.61
25510;BME280;13413;52.336;21.200;2022-09-09T06:05:28;100262.73;;;16.26;65.80
25510;BME280;13413;52.336;21.200;2022-09-09T06:08:47;100262.09;;;16.31;65.68
25510;BME280;13413;52.336;21.200;2022-09-09T06:12:08;100262.56;;;16.34;65.67
25510;BME280;13413;52.336;21.200;2022-09-09T06:15:28;100266.02;;;16.42;65.60
25510;BME280;13413;52.336;21.200;2022-09-09T06:18:48;100269.51;;;16.43;65.51
25510;BME280;13413;52.336;21.200;2022-09-09T06:22:07;100278.98;;;16.31;65.78
25510;BME280;13413;52.336;21.200;2022-09-09T06:25:27;100283.05;;;16.31;65.70
25510;BME280;13413;52.336;21.200;2022-09-09T06:28:46;100282.30;;;16.39;65.95
25510;BME280;13413;52.336;21.200;2022-09-09T06:32:06;100282.64;;;16.36;65.95
25510;BME280;13413;52.336;21.200;2022-09-09T06:35:26;100283.25;;;16.32;65.84
25510;BME280;13413;52.336;21.200;2022-09-09T06:38:45;100288.23;;;16.32;66.00
25510;BME280;13413;52.336;21.200;2022-09-09T06:42:05;100284.56;;;16.38;65.93
25510;BME280;13413;52.336;21.200;2022-09-09T06:45:25;100285.00;;;16.42;66.08
25510;BME280;13413;52.336;21.200;2022-09-09T06:48:45;100292.19;;;16.46;66.00
25510;BME280;13413;52.336;21.200;2022-09-09T06:52:05;100294.88;;;16.50;65.97
25510;BME280;13413;52.336;21.200;2022-09-09T06:55:37;100295.46;;;16.56;65.84
25510;BME280;13413;52.336;21.200;2022-09-09T06:58:59;100296.92;;;16.58;65.82
25510;BME280;13413;52.336;21.200;2022-09-09T07:02:19;100299.60;;;16.54;65.92
25510;BME280;13413;52.336;21.200;2022-09-09T07:05:37;100298.91;;;16.50;66.23
25510;BME280;13413;52.336;21.200;2022-09-09T07:08:59;100296.88;;;16.48;66.15
25510;BME280;13413;52.336;21.200;2022-09-09T07:12:19;100300.89;;;16.45;66.28
25510;BME280;13413;52.336;21.200;2022-09-09T07:15:38;100304.55;;;16.44;66.39
25510;BME280;13413;52.336;21.200;2022-09-09T07:18:59;100301.11;;;16.48;66.52
25510;BME280;13413;52.336;21.200;2022-09-09T07:22:17;100307.64;;;16.56;66.39
25510;BME280;13413;52.336;21.200;2022-09-09T07:25:37;100311.27;;;16.63;66.39
25510;BME280;13413;52.336;21.200;2022-09-09T07:28:56;100313.79;;;16.63;66.30
25510;BME280;13413;52.336;21.200;2022-09-09T07:32:16;100318.88;;;16.64;66.53
25510;BME280;13413;52.336;21.200;2022-09-09T07:35:36;100320.33;;;16.65;66.69
25510;BME280;13413;52.336;21.200;2022-09-09T07:38:57;100322.55;;;16.54;67.00
25510;BME280;13413;52.336;21.200;2022-09-09T07:42:18;100325.63;;;16.50;66.89
25510;BME280;13413;52.336;21.200;2022-09-09T07:45:37;100332.64;;;16.54;66.95
25510;BME280;13413;52.336;21.200;2022-09-09T07:48:58;100334.45;;;16.57;66.86
25510;BME280;13413;52.336;21.200;2022-09-09T07:52:18;100332.16;;;16.78;66.77
25510;BME280;13413;52.336;21.200;2022-09-09T07:55:37;100329.34;;;16.73;66.62
25510;BME280;13413;52.336;21.200;2022-09-09T07:58:57;100335.38;;;16.67;66.69
25510;BME280;13413;52.336;21.200;2022-09-09T08:02:18;100341.13;;;16.59;66.95
25510;BME280;13413;52.336;21.200;2022-09-09T08:05:41;100341.98;;;16.62;67.11
25510;BME280;13413;52.336;21.200;2022-09-09T08:09:01;100345.18;;;16.70;67.21
25510;BME280;13413;52.336;21.200;2022-09-09T08:12:22;100348.40;;;16.62;67.35
25510;BME280;13413;52.336;21.200;2022-09-09T08:15:42;100350.73;;;16.63;67.51
25510;BME280;13413;52.336;21.200;2022-09-09T08:19:01;100353.09;;;16.70;67.60
25510;BME280;13413;52.336;21.200;2022-09-09T08:22:22;100357.58;;;16.63;67.72
25510;BME280;13413;52.336;21.200;2022-09-09T08:25:54;100351.48;;;16.54;67.86
25510;BME280;13413;52.336;21.200;2022-09-09T08:29:14;100349.02;;;16.56;68.03
25510;BME280;13413;52.336;21.200;2022-09-09T08:32:34;100352.53;;;16.68;68.04
25510;BME280;13413;52.336;21.200;2022-09-09T08:35:53;100352.98;;;16.83;67.80
25510;BME280;13413;52.336;21.200;2022-09-09T08:39:15;100357.41;;;16.74;67.66
25510;BME280;13413;52.336;21.200;2022-09-09T08:42:39;100354.97;;;16.73;67.97
25510;BME280;13413;52.336;21.200;2022-09-09T08:46:05;100364.65;;;16.74;67.86
25510;BME280;13413;52.336;21.200;2022-09-09T08:49:46;100365.00;;;16.78;67.77
25510;BME280;13413;52.336;21.200;2022-09-09T08:53:17;100367.98;;;16.73;67.97
25510;BME280;13413;52.336;21.200;2022-09-09T08:56:39;100373.89;;;16.72;68.13
25510;BME280;13413;52.336;21.200;2022-09-09T08:59:59;100375.73;;;16.61;68.12
25510;BME280;13413;52.336;21.200;2022-09-09T09:03:25;100378.86;;;16.56;68.38
25510;BME280;13413;52.336;21.200;2022-09-09T09:06:53;100379.45;;;16.66;68.47
25510;BME280;13413;52.336;21.200;2022-09-09T09:10:29;100379.92;;;16.46;69.10
25510;BME280;13413;52.336;21.200;2022-09-09T09:13:54;100380.83;;;16.47;69.09
25510;BME280;13413;52.336;21.200;2022-09-09T09:17:16;100382.86;;;16.56;68.99
25510;BME280;13413;52.336;21.200;2022-09-09T09:20:42;100383.05;;;16.62;69.00
25510;BME280;13413;52.336;21.200;2022-09-09T09:24:12;100381.86;;;16.68;69.10
25510;BME280;13413;52.336;21.200;2022-09-09T09:27:38;100388.88;;;16.81;68.94
25510;BME280;13413;52.336;21.200;2022-09-09T09:31:01;100394.10;;;16.90;68.79
25510;BME280;13413;52.336;21.200;2022-09-09T09:34:23;100397.59;;;16.86;68.97
25510;BME280;13413;52.336;21.200;2022-09-09T09:37:42;100397.11;;;16.67;69.09
25510;BME280;13413;52.336;21.200;2022-09-09T09:41:03;100398.56;;;16.65;69.26
25510;BME280;13413;52.336;21.200;2022-09-09T09:44:27;100401.33;;;16.75;69.25
25510;BME280;13413;52.336;21.200;2022-09-09T09:47:57;100397.59;;;16.85;69.04
25510;BME280;13413;52.336;21.200;2022-09-09T09:51:18;100398.61;;;16.73;69.32
25510;BME280;13413;52.336;21.200;2022-09-09T09:54:43;100400.69;;;16.70;69.54
25510;BME280;13413;52.336;21.200;2022-09-09T09:58:05;100401.23;;;16.61;69.78
25510;BME280;13413;52.336;21.200;2022-09-09T10:01:27;100405.38;;;16.70;69.74
25510;BME280;13413;52.336;21.200;2022-09-09T10:04:48;100404.77;;;16.62;69.67
25510;BME280;13413;52.336;21.200;2022-09-09T10:08:13;100403.30;;;16.73;69.61
25510;BME280;13413;52.336;21.200;2022-09-09T10:11:41;100408.08;;;16.89;69.49
25510;BME280;13413;52.336;21.200;2022-09-09T10:15:13;100409.55;;;16.93;69.42
25510;BME280;13413;52.336;21.200;2022-09-09T10:18:56;100411.44;;;16.88;69.48
25510;BME280;13413;52.336;21.200;2022-09-09T10:22:34;100406.61;;;16.94;69.44
25510;BME280;13413;52.336;21.200;2022-09-09T10:26:12;100406.17;;;17.00;69.48
25510;BME280;13413;52.336;21.200;2022-09-09T10:29:47;100406.54;;;16.97;69.58
25510;BME280;13413;52.336;21.200;2022-09-09T10:33:12;100409.88;;;16.94;69.80
25510;BME280;13413;52.336;21.200;2022-09-09T10:36:39;100415.83;;;16.96;69.72
25510;BME280;13413;52.336;21.200;2022-09-09T10:40:05;100424.69;;;16.96;69.74
25510;BME280;13413;52.336;21.200;2022-09-09T10:43:46;100428.16;;;17.02;69.73
25510;BME280;13413;52.336;21.200;2022-09-09T10:47:44;100431.90;;;16.97;69.79
25510;BME280;13413;52.336;21.200;2022-09-09T10:51:23;100440.59;;;16.99;70.03
25510;BME280;13413;52.336;21.200;2022-09-09T10:54:53;100449.40;;;16.95;69.91
25510;BME280;13413;52.336;21.200;2022-09-09T10:58:22;100454.16;;;16.99;70.09
25510;BME280;13413;52.336;21.200;2022-09-09T11:01:47;100462.79;;;16.88;70.38
25510;BME280;13413;52.336;21.200;2022-09-09T11:05:14;100466.38;;;16.87;70.13
25510;BME280;13413;52.336;21.200;2022-09-09T11:08:39;100470.62;;;16.89;70.08
25510;BME280;13413;52.336;21.200;2022-09-09T11:12:01;100480.74;;;16.84;70.22
25510;BME280;13413;52.336;21.200;2022-09-09T11:15:26;100481.42;;;16.79;70.47
25510;BME280;13413;52.336;21.200;2022-09-09T11:18:49;100484.86;;;16.74;70.63
25510;BME280;13413;52.336;21.200;2022-09-09T11:22:18;100490.56;;;16.83;70.59
25510;BME280;13413;52.336;21.200;2022-09-09T11:25:43;100486.67;;;16.93;70.34
25510;BME280;13413;52.336;21.200;2022-09-09T11:29:29;100482.79;;;17.03;70.31
25510;BME280;13413;52.336;21.200;2022-09-09T11:33:05;100478.42;;;17.10;70.28
25510;BME280;13413;52.336;21.200;2022-09-09T11:36:46;100478.18;;;17.16;70.06
25510;BME280;13413;52.336;21.200;2022-09-09T11:40:18;100484.61;;;17.22;70.09
25510;BME280;13413;52.336;21.200;2022-09-09T11:43:42;100487.70;;;17.31;69.95
25510;BME280;13413;52.336;21.200;2022-09-09T11:47:03;100488.73;;;17.33;69.78
25510;BME280;13413;52.336;21.200;2022-09-09T11:50:35;100489.55;;;17.32;69.78
25510;BME280;13413;52.336;21.200;2022-09-09T11:53:56;100484.48;;;17.43;69.66
25510;BME280;13413;52.336;21.200;2022-09-09T11:57:25;100485.77;;;17.46;69.64
25510;BME280;13413;52.336;21.200;2022-09-09T12:00:47;100485.41;;;17.47;69.68
25510;BME280;13413;52.336;21.200;2022-09-09T12:04:28;100476.08;;;17.48;69.72
25510;BME280;13413;52.336;21.200;2022-09-09T12:07:55;100479.73;;;17.51;69.69
25510;BME280;13413;52.336;21.200;2022-09-09T12:11:25;100475.41;;;17.53;69.75
25510;BME280;13413;52.336;21.200;2022-09-09T12:14:59;100476.12;;;17.35;69.84
25510;BME280;13413;52.336;21.200;2022-09-09T12:18:24;100479.48;;;17.28;70.07
25510;BME280;13413;52.336;21.200;2022-09-09T12:21:50;100486.90;;;17.39;69.93
25510;BME280;13413;52.336;21.200;2022-09-09T12:25:20;100487.88;;;17.41;69.91
25510;BME280;13413;52.336;21.200;2022-09-09T12:28:47;100485.80;;;17.41;69.88
25510;BME280;13413;52.336;21.200;2022-09-09T12:32:11;100488.16;;;17.38;69.82
25510;BME280;13413;52.336;21.200;2022-09-09T12:35:31;100488.65;;;17.36;69.98
25510;BME280;13413;52.336;21.200;2022-09-09T12:38:52;100489.44;;;17.29;70.22
25510;BME280;13413;52.336;21.200;2022-09-09T12:42:20;100493.41;;;17.22;70.26
25510;BME280;13413;52.336;21.200;2022-09-09T12:45:38;100490.95;;;17.20;70.31
25510;BME280;13413;52.336;21.200;2022-09-09T12:48:59;100495.65;;;17.28;70.32
25510;BME280;13413;52.336;21.200;2022-09-09T12:52:23;100495.95;;;17.30;70.18
25510;BME280;13413;52.336;21.200;2022-09-09T12:55:52;100493.33;;;17.35;70.02
25510;BME280;13413;52.336;21.200;2022-09-09T12:59:24;100488.63;;;17.33;70.25
25510;BME280;13413;52.336;21.200;2022-09-09T13:02:50;100485.08;;;17.35;70.15
25510;BME280;13413;52.336;21.200;2022-09-09T13:06:18;100475.45;;;17.47;70.01
25510;BME280;13413;52.336;21.200;2022-09-09T13:09:39;100467.85;;;17.55;70.03
25510;BME280;13413;52.336;21.200;2022-09-09T13:13:01;100467.62;;;17.56;69.93
25510;BME280;13413;52.336;21.200;2022-09-09T13:16:25;100474.11;;;17.60;70.00
25510;BME280;13413;52.336;21.200;2022-09-09T13:19:46;100478.40;;;17.61;69.91
25510;BME280;13413;52.336;21.200;2022-09-09T13:23:09;100484.23;;;17.39;70.41
25510;BME280;13413;52.336;21.200;2022-09-09T13:26:31;100484.62;;;17.41;70.26
25510;BME280;13413;52.336;21.200;2022-09-09T13:29:54;100482.36;;;17.50;70.22
25510;BME280;13413;52.336;21.200;2022-09-09T13:33:28;100477.73;;;17.53;70.11
25510;BME280;13413;52.336;21.200;2022-09-09T13:36:49;100468.97;;;17.65;69.99
25510;BME280;13413;52.336;21.200;2022-09-09T13:40:19;100468.02;;;17.70;69.73
25510;BME280;13413;52.336;21.200;2022-09-09T13:43:45;100468.55;;;17.74;69.75
25510;BME280;13413;52.336;21.200;2022-09-09T13:47:17;100466.20;;;17.79;69.65
25510;BME280;13413;52.336;21.200;2022-09-09T13:50:38;100466.80;;;17.76;69.68
25510;BME280;13413;52.336;21.200;2022-09-09T13:53:58;100458.69;;;17.83;69.69
25510;BME280;13413;52.336;21.200;2022-09-09T13:57:19;100462.41;;;17.87;69.61
25510;BME280;13413;52.336;21.200;2022-09-09T14:00:38;100469.20;;;17.89;69.63
25510;BME280;13413;52.336;21.200;2022-09-09T14:03:57;100468.97;;;17.83;69.46
25510;BME280;13413;52.336;21.200;2022-09-09T14:07:18;100474.72;;;17.73;69.47
25510;BME280;13413;52.336;21.200;2022-09-09T14:10:37;100484.63;;;17.71;69.48
25510;BME280;13413;52.336;21.200;2022-09-09T14:13:58;100484.67;;;17.73;69.53
25510;BME280;13413;52.336;21.200;2022-09-09T14:17:18;100489.15;;;17.68;69.43
25510;BME280;13413;52.336;21.200;2022-09-09T14:20:37;100492.98;;;17.51;69.82
25510;BME280;13413;52.336;21.200;2022-09-09T14:23:57;100493.89;;;17.36;70.00
25510;BME280;13413;52.336;21.200;2022-09-09T14:27:16;100498.27;;;17.36;70.25
25510;BME280;13413;52.336;21.200;2022-09-09T14:30:35;100501.57;;;17.30;70.34
25510;BME280;13413;52.336;21.200;2022-09-09T14:33:55;100500.71;;;17.28;70.40
25510;BME280;13413;52.336;21.200;2022-09-09T14:37:14;100496.64;;;17.39;70.33
25510;BME280;13413;52.336;21.200;2022-09-09T14:40:35;100499.45;;;17.43;70.21
25510;BME280;13413;52.336;21.200;2022-09-09T14:43:54;100502.21;;;17.52;70.23
25510;BME280;13413;52.336;21.200;2022-09-09T14:47:13;100508.01;;;17.49;70.17
25510;BME280;13413;52.336;21.200;2022-09-09T14:50:33;100503.48;;;17.46;70.25
25510;BME280;13413;52.336;21.200;2022-09-09T14:53:55;100498.27;;;17.49;70.29
25510;BME280;13413;52.336;21.200;2022-09-09T14:57:14;100490.94;;;17.62;70.32
25510;BME280;13413;52.336;21.200;2022-09-09T15:00:33;100482.34;;;17.70;69.98
25510;BME280;13413;52.336;21.200;2022-09-09T15:03:55;100492.10;;;17.73;69.95
25510;BME280;13413;52.336;21.200;2022-09-09T15:07:14;100494.20;;;17.74;69.83
25510;BME280;13413;52.336;21.200;2022-09-09T15:10:33;100501.34;;;17.78;69.76
25510;BME280;13413;52.336;21.200;2022-09-09T15:13:53;100508.21;;;17.75;69.75
25510;BME280;13413;52.336;21.200;2022-09-09T15:17:14;100501.79;;;17.79;69.59
25510;BME280;13413;52.336;21.200;2022-09-09T15:20:33;100499.41;;;17.82;69.67
25510;BME280;13413;52.336;21.200;2022-09-09T15:23:57;100500.21;;;17.80;69.44
25510;BME280;13413;52.336;21.200;2022-09-09T15:27:17;100499.55;;;17.79;69.52
25510;BME280;13413;52.336;21.200;2022-09-09T15:30:37;100497.69;;;17.81;69.30
25510;BME280;13413;52.336;21.200;2022-09-09T15:33:59;100501.55;;;17.78;69.30
25510;BME280;13413;52.336;21.200;2022-09-09T15:37:18;100498.09;;;17.81;69.27
25510;BME280;13413;52.336;21.200;2022-09-09T15:40:38;100504.53;;;17.88;69.08
25510;BME280;13413;52.336;21.200;2022-09-09T15:43:58;100510.02;;;17.92;69.31
25510;BME280;13413;52.336;21.200;2022-09-09T15:47:17;100514.10;;;17.87;69.17
25510;BME280;13413;52.336;21.200;2022-09-09T15:50:36;100522.30;;;17.85;69.06
25510;BME280;13413;52.336;21.200;2022-09-09T15:53:59;100527.55;;;17.84;69.02
25510;BME280;13413;52.336;21.200;2022-09-09T15:57:18;100523.67;;;17.77;69.08
25510;BME280;13413;52.336;21.200;2022-09-09T16:00:37;100523.55;;;17.73;69.04
25510;BME280;13413;52.336;21.200;2022-09-09T16:07:31;100519.41;;;17.70;68.99
25510;BME280;13413;52.336;21.200;2022-09-09T16:10:50;100519.59;;;17.71;69.03
25510;BME280;13413;52.336;21.200;2022-09-09T16:14:09;100522.02;;;17.69;69.05
25510;BME280;13413;52.336;21.200;2022-09-09T16:17:29;100511.11;;;17.64;69.07
25510;BME280;13413;52.336;21.200;2022-09-09T16:20:56;100500.27;;;17.62;68.98
25510;BME280;13413;52.336;21.200;2022-09-09T16:24:16;100491.90;;;17.67;68.99
25510;BME280;13413;52.336;21.200;2022-09-09T16:27:35;100506.44;;;17.64;68.87
25510;BME280;13413;52.336;21.200;2022-09-09T16:30:55;100508.74;;;17.55;69.03
25510;BME280;13413;52.336;21.200;2022-09-09T16:34:15;100503.30;;;17.54;69.12
25510;BME280;13413;52.336;21.200;2022-09-09T16:37:36;100503.74;;;17.56;69.16
25510;BME280;13413;52.336;21.200;2022-09-09T16:41:00;100502.25;;;17.62;69.13
25510;BME280;13413;52.336;21.200;2022-09-09T16:44:19;100495.52;;;17.66;69.04
25510;BME280;13413;52.336;21.200;2022-09-09T16:47:38;100496.23;;;17.66;69.05
25510;BME280;13413;52.336;21.200;2022-09-09T16:51:04;100493.18;;;17.65;69.01
25510;BME280;13413;52.336;21.200;2022-09-09T16:54:23;100495.05;;;17.58;68.93
25510;BME280;13413;52.336;21.200;2022-09-09T16:57:43;100500.76;;;17.53;68.97
25510;BME280;13413;52.336;21.200;2022-09-09T17:01:04;100501.64;;;17.54;69.00
25510;BME280;13413;52.336;21.200;2022-09-09T17:04:27;100500.66;;;17.49;69.04
25510;BME280;13413;52.336;21.200;2022-09-09T17:07:46;100493.35;;;17.45;69.00
25510;BME280;13413;52.336;21.200;2022-09-09T17:11:12;100493.19;;;17.44;69.02
25510;BME280;13413;52.336;21.200;2022-09-09T17:14:33;100495.31;;;17.40;69.04
25510;BME280;13413;52.336;21.200;2022-09-09T17:17:51;100502.69;;;17.41;69.07
25510;BME280;13413;52.336;21.200;2022-09-09T17:21:13;100500.04;;;17.38;69.07
25510;BME280;13413;52.336;21.200;2022-09-09T17:24:34;100508.63;;;17.34;69.25
25510;BME280;13413;52.336;21.200;2022-09-09T17:27:55;100509.17;;;17.27;69.33
25510;BME280;13413;52.336;21.200;2022-09-09T17:31:14;100513.95;;;17.22;69.41
25510;BME280;13413;52.336;21.200;2022-09-09T17:34:33;100518.52;;;17.24;69.48
25510;BME280;13413;52.336;21.200;2022-09-09T17:37:53;100518.81;;;17.28;69.37
25510;BME280;13413;52.336;21.200;2022-09-09T17:44:51;100523.30;;;17.24;69.48